KBBW/BBW METAR and TAF weather

Enter ICAO airport designator
Station Type Date Time Source
KBBW METAR 2020/09/18 22:53 UTC NOAA

KBBW 182253Z AUTO 14014G24KT 10SM CLR 22/12 A3017 RMK AO2 SLP207 T02220122


Station Type Date Time Source
KBBW Decoded METAR 2020/09/18 22:53 UTC NOAA

BROKEN BOW MUNICIPAL AIRPORT, NE, United States (KBBW) 41-26N 099-38W
Sep 18, 2020 - 06:53 PM EDT / 2020.09.18 2253 UTC
Wind: from the SE (140 degrees) at 16 MPH (14 KT) gusting to 28 MPH (24 KT):0
Visibility: 10 mile(s):0
Sky conditions: clear
Temperature: 72.0 F (22.2 C)
Dew Point: 54.0 F (12.2 C)
Relative Humidity: 53%
Pressure (altimeter): 30.17 in. Hg (1021 hPa)
ob: KBBW 182253Z AUTO 14014G24KT 10SM CLR 22/12 A3017 RMK AO2 SLP207 T02220122
cycle: 23

Station Type Date Time Source
KBBW TAF UTC NOAA

Error!

Example: see airport list